createdAt,value
2022-11-29T00:02:59.044Z,92.17
2022-11-29T00:06:29.171Z,92.26
2022-11-29T00:09:55.831Z,92.35
2022-11-29T00:13:22.499Z,92.11
2022-11-29T00:16:53.415Z,92.18
2022-11-29T00:20:20.189Z,92.12
2022-11-29T00:23:47.309Z,91.89
2022-11-29T00:27:14.129Z,91.93
2022-11-29T00:30:41.212Z,92.09
2022-11-29T00:34:08.925Z,91.93
2022-11-29T00:37:35.880Z,91.72
2022-11-29T00:41:02.588Z,91.86
2022-11-29T00:44:29.633Z,91.86
2022-11-29T00:47:56.282Z,91.77
2022-11-29T00:51:22.931Z,91.71
2022-11-29T00:54:49.988Z,91.68
2022-11-29T00:58:17.012Z,91.53
2022-11-29T01:01:44.275Z,91.70
2022-11-29T01:05:11.541Z,91.72
2022-11-29T01:08:38.957Z,91.73
2022-11-29T01:12:05.952Z,91.64
2022-11-29T01:15:32.974Z,91.64
2022-11-29T01:19:00.476Z,91.65
2022-11-29T01:22:27.575Z,91.54
2022-11-29T01:26:01.445Z,91.57
2022-11-29T01:29:28.331Z,91.49
2022-11-29T01:32:55.050Z,91.64
2022-11-29T01:36:21.792Z,91.63
2022-11-29T01:39:48.467Z,91.52
2022-11-29T01:43:19.644Z,91.34
2022-11-29T01:46:48.316Z,91.43
2022-11-29T01:50:15.653Z,91.39
2022-11-29T01:53:42.779Z,91.46
2022-11-29T01:57:10.957Z,91.29
2022-11-29T02:00:38.280Z,91.42
2022-11-29T02:04:06.606Z,91.34
2022-11-29T02:07:33.606Z,91.33
2022-11-29T02:11:30.174Z,91.17
2022-11-29T02:15:25.985Z,91.26
2022-11-29T02:19:04.252Z,91.16
2022-11-29T02:22:34.444Z,91.26
2022-11-29T02:26:16.495Z,91.34
2022-11-29T02:30:14.397Z,91.05
2022-11-29T02:34:12.021Z,91.35
2022-11-29T02:37:58.309Z,91.30
2022-11-29T02:41:39.452Z,91.29
2022-11-29T02:45:11.397Z,91.49
2022-11-29T02:48:54.238Z,91.19
2022-11-29T02:52:27.388Z,91.40
2022-11-29T02:56:04.439Z,91.36
2022-11-29T02:59:42.615Z,91.45
2022-11-29T03:03:16.321Z,91.11
2022-11-29T03:06:51.572Z,91.41
2022-11-29T03:10:30.760Z,91.26
2022-11-29T03:14:13.019Z,91.28
2022-11-29T03:17:55.101Z,91.24
2022-11-29T03:21:35.956Z,91.28
2022-11-29T03:25:09.074Z,91.33
2022-11-29T03:28:40.499Z,91.52
2022-11-29T03:32:13.898Z,91.25
2022-11-29T03:35:47.952Z,91.50
2022-11-29T03:39:31.638Z,91.56
2022-11-29T03:43:03.141Z,91.58
2022-11-29T03:46:36.105Z,91.43
2022-11-29T03:50:08.575Z,91.51
2022-11-29T03:53:43.040Z,91.50
2022-11-29T03:57:11.047Z,91.50
2022-11-29T04:00:57.897Z,91.55
2022-11-29T04:04:56.069Z,91.59
2022-11-29T04:08:53.989Z,91.44
2022-11-29T04:13:07.102Z,91.56
2022-11-29T04:17:00.352Z,91.48
2022-11-29T04:21:06.356Z,91.57
2022-11-29T04:24:51.441Z,91.46
2022-11-29T04:28:52.670Z,91.49
2022-11-29T04:32:49.686Z,91.56
2022-11-29T04:36:39.748Z,91.37
2022-11-29T04:40:28.275Z,91.48
2022-11-29T04:44:13.753Z,91.41
2022-11-29T04:47:58.815Z,91.38
2022-11-29T04:51:42.261Z,91.50
2022-11-29T04:55:29.277Z,91.46
2022-11-29T04:59:05.282Z,91.52
2022-11-29T05:02:37.438Z,91.44
2022-11-29T05:20:02.071Z,90.81
2022-11-29T05:23:43.798Z,90.28
2022-11-29T05:27:17.810Z,90.56
2022-11-29T05:31:04.339Z,90.66
2022-11-29T05:34:45.094Z,90.74
2022-11-29T05:38:21.656Z,91.19
2022-11-29T05:42:05.242Z,91.14
2022-11-29T05:45:36.705Z,91.31
2022-11-29T05:49:18.695Z,91.63
2022-11-29T05:52:55.976Z,91.71
2022-11-29T05:56:32.981Z,91.56
2022-11-29T06:00:03.566Z,91.62
2022-11-29T06:03:44.821Z,91.63
2022-11-29T06:07:19.019Z,92.02
2022-11-29T06:10:57.680Z,91.94
2022-11-29T06:14:44.801Z,91.66
2022-11-29T06:18:34.311Z,91.78
2022-11-29T06:22:15.058Z,91.94
2022-11-29T06:26:04.059Z,91.87
2022-11-29T06:29:43.370Z,91.76
2022-11-29T06:33:18.084Z,91.88
2022-11-29T06:36:49.633Z,92.09
2022-11-29T06:40:18.420Z,91.86
2022-11-29T06:43:46.264Z,91.79
2022-11-29T06:47:20.397Z,91.87
2022-11-29T06:50:55.246Z,92.07
2022-11-29T06:54:35.671Z,92.14
2022-11-29T06:58:13.553Z,91.82
2022-11-29T07:01:47.002Z,91.88
2022-11-29T07:05:21.509Z,91.90
2022-11-29T07:08:50.312Z,91.88
2022-11-29T07:12:18.857Z,91.73
2022-11-29T07:16:01.098Z,91.77
2022-11-29T07:19:36.973Z,91.44
2022-11-29T07:23:11.968Z,91.66
2022-11-29T07:26:47.600Z,91.70
2022-11-29T07:30:19.604Z,91.73
2022-11-29T07:33:59.708Z,91.65
2022-11-29T07:37:37.170Z,91.58
2022-11-29T07:41:11.374Z,91.58
2022-11-29T07:44:47.470Z,91.50
2022-11-29T07:48:17.436Z,91.42
2022-11-29T07:51:44.561Z,91.65
2022-11-29T07:55:18.624Z,91.30
2022-11-29T07:58:46.101Z,91.28
2022-11-29T08:02:14.415Z,91.45
2022-11-29T08:05:41.779Z,91.31
2022-11-29T08:09:08.834Z,91.49
2022-11-29T08:12:35.718Z,91.26
2022-11-29T08:16:02.531Z,91.31
2022-11-29T08:19:29.429Z,91.40
2022-11-29T08:23:00.661Z,91.36
2022-11-29T08:26:31.689Z,91.33
2022-11-29T08:29:59.035Z,91.32
2022-11-29T08:33:26.138Z,91.32
2022-11-29T08:36:55.597Z,91.39
2022-11-29T08:40:23.970Z,91.19
2022-11-29T08:43:50.982Z,91.08
2022-11-29T08:47:35.558Z,91.34
2022-11-29T08:51:02.894Z,91.33
2022-11-29T08:54:30.007Z,91.18
2022-11-29T08:58:04.433Z,91.35
2022-11-29T09:01:31.333Z,91.28
2022-11-29T09:04:58.386Z,91.23
2022-11-29T09:08:25.262Z,91.02
2022-11-29T09:11:52.020Z,91.21
2022-11-29T09:15:19.813Z,91.51
2022-11-29T09:18:51.954Z,91.36
2022-11-29T09:22:19.092Z,91.45
2022-11-29T09:25:50.747Z,91.48
2022-11-29T09:29:18.741Z,91.30
2022-11-29T09:32:46.642Z,91.11
2022-11-29T09:36:14.612Z,91.34
2022-11-29T09:39:42.092Z,91.11
2022-11-29T09:43:18.883Z,91.25
2022-11-29T09:46:58.850Z,91.24
2022-11-29T09:50:34.324Z,91.11
2022-11-29T09:54:15.898Z,91.06
2022-11-29T09:57:44.896Z,91.00
2022-11-29T10:01:19.926Z,90.77
2022-11-29T10:04:49.780Z,90.99
2022-11-29T10:08:19.448Z,90.74
2022-11-29T10:12:03.425Z,90.37
2022-11-29T10:15:33.171Z,90.54
2022-11-29T10:19:05.913Z,90.08
2022-11-29T10:22:40.818Z,90.04
2022-11-29T10:26:08.448Z,90.07
2022-11-29T10:29:35.821Z,89.81
2022-11-29T10:33:02.890Z,89.63
2022-11-29T10:36:35.433Z,89.93
2022-11-29T10:40:08.059Z,89.76
2022-11-29T10:43:37.474Z,89.79
2022-11-29T10:47:10.653Z,89.61
2022-11-29T10:50:41.833Z,89.47
2022-11-29T10:54:29.935Z,89.38
2022-11-29T10:58:28.739Z,89.26
2022-11-29T11:01:56.813Z,89.29
2022-11-29T11:05:28.507Z,89.40
2022-11-29T11:08:57.384Z,89.14
2022-11-29T11:12:27.899Z,89.24
2022-11-29T11:15:59.512Z,88.93
2022-11-29T11:19:34.523Z,88.78
2022-11-29T11:23:04.526Z,88.79
2022-11-29T11:26:45.366Z,89.05
2022-11-29T11:30:22.711Z,89.12
2022-11-29T11:33:49.444Z,88.64
2022-11-29T11:37:24.633Z,88.47
2022-11-29T11:41:01.501Z,88.80
2022-11-29T11:44:51.995Z,88.63
2022-11-29T11:48:20.378Z,88.50
2022-11-29T11:51:47.397Z,88.43
2022-11-29T11:55:33.544Z,88.55
2022-11-29T11:59:00.601Z,88.46
2022-11-29T12:02:37.561Z,88.67
2022-11-29T12:06:22.018Z,88.21
2022-11-29T12:09:54.142Z,88.35
2022-11-29T12:13:26.445Z,88.27
2022-11-29T12:17:02.256Z,88.28
2022-11-29T12:20:33.819Z,88.09
2022-11-29T12:24:05.073Z,88.19
2022-11-29T12:27:33.164Z,88.17
2022-11-29T12:31:08.934Z,88.48
2022-11-29T12:34:49.848Z,88.33
2022-11-29T12:38:34.382Z,88.81
2022-11-29T12:42:10.531Z,88.75
2022-11-29T12:45:49.189Z,88.51
2022-11-29T12:49:23.000Z,88.55
2022-11-29T12:53:01.767Z,88.64
2022-11-29T12:56:34.851Z,88.56
2022-11-29T13:00:13.127Z,88.48
2022-11-29T13:03:45.885Z,88.81
2022-11-29T13:07:22.310Z,88.81
2022-11-29T13:11:07.159Z,88.92
2022-11-29T13:14:55.341Z,88.89
2022-11-29T13:18:29.199Z,89.18
2022-11-29T13:22:07.363Z,88.91
2022-11-29T13:25:38.369Z,89.29
2022-11-29T13:29:07.455Z,89.53
2022-11-29T13:32:41.248Z,89.59
2022-11-29T13:36:16.354Z,89.49
2022-11-29T13:40:00.555Z,89.69
2022-11-29T13:43:34.130Z,89.84
2022-11-29T13:47:08.187Z,89.94
2022-11-29T13:50:44.090Z,89.61
2022-11-29T13:54:31.973Z,89.79
2022-11-29T13:58:20.175Z,89.43
2022-11-29T14:01:50.336Z,89.83
2022-11-29T14:05:27.984Z,89.62
2022-11-29T14:09:34.416Z,89.87
2022-11-29T14:13:01.986Z,89.58
2022-11-29T14:16:36.917Z,89.78
2022-11-29T14:20:36.448Z,89.88
2022-11-29T14:24:23.505Z,89.81
2022-11-29T14:28:23.185Z,89.59
2022-11-29T14:31:49.337Z,90.07
2022-11-29T14:35:24.137Z,89.82
2022-11-29T14:38:59.757Z,89.80
2022-11-29T14:42:28.559Z,90.16
2022-11-29T14:46:10.112Z,90.05
2022-11-29T14:49:44.014Z,89.84
2022-11-29T14:53:34.023Z,89.97
2022-11-29T14:57:20.702Z,90.02
2022-11-29T15:01:09.606Z,89.90
2022-11-29T15:04:39.577Z,90.13
2022-11-29T15:08:14.444Z,90.05
2022-11-29T15:11:52.618Z,90.12
2022-11-29T15:15:39.080Z,90.48
2022-11-29T15:19:21.071Z,90.33
2022-11-29T15:22:53.360Z,90.28
2022-11-29T15:26:22.341Z,90.36
2022-11-29T15:29:49.235Z,90.45
2022-11-29T15:33:22.487Z,90.69
2022-11-29T15:36:49.123Z,90.26
2022-11-29T15:40:18.499Z,90.61
2022-11-29T15:43:48.813Z,90.46
2022-11-29T15:47:23.894Z,90.77
2022-11-29T15:50:57.501Z,90.46
2022-11-29T15:54:31.785Z,90.60
2022-11-29T15:58:08.342Z,90.68
2022-11-29T16:01:37.284Z,90.64
2022-11-29T16:05:10.288Z,90.66
2022-11-29T16:08:42.833Z,90.97
2022-11-29T16:12:13.096Z,90.75
2022-11-29T16:15:41.520Z,90.86
2022-11-29T16:19:31.500Z,90.96
2022-11-29T16:23:13.029Z,91.07
2022-11-29T16:26:42.902Z,91.29
2022-11-29T16:30:22.356Z,91.15
2022-11-29T16:33:51.127Z,91.19
2022-11-29T16:37:21.527Z,91.07
2022-11-29T16:41:04.474Z,90.92
2022-11-29T16:45:02.214Z,90.81
2022-11-29T16:48:38.207Z,91.14
2022-11-29T16:52:24.306Z,91.12
2022-11-29T16:55:53.533Z,91.21
2022-11-29T16:59:26.505Z,90.98
2022-11-29T17:02:55.381Z,91.10
2022-11-29T17:06:25.311Z,90.80
2022-11-29T17:09:52.416Z,90.96
2022-11-29T17:13:19.217Z,91.03
2022-11-29T17:16:49.166Z,91.29
2022-11-29T17:20:16.794Z,90.81
2022-11-29T17:23:43.737Z,91.16
2022-11-29T17:27:10.979Z,91.25
2022-11-29T17:30:38.128Z,90.91
2022-11-29T17:34:05.061Z,91.28
2022-11-29T17:37:32.803Z,91.12
2022-11-29T17:40:59.425Z,91.52
2022-11-29T17:44:26.222Z,91.23
2022-11-29T17:47:53.428Z,91.22
2022-11-29T17:51:50.431Z,91.22
2022-11-29T17:55:11.983Z,91.47
2022-11-29T17:58:39.463Z,91.52
2022-11-29T18:02:06.171Z,91.19
2022-11-29T18:05:34.881Z,91.41
2022-11-29T18:09:03.707Z,91.36
2022-11-29T18:12:30.408Z,91.38
2022-11-29T18:16:02.222Z,91.42
2022-11-29T18:19:29.923Z,91.52
2022-11-29T18:22:56.624Z,91.53
2022-11-29T18:26:25.369Z,91.73
2022-11-29T18:29:52.211Z,91.61
2022-11-29T18:33:18.846Z,91.58
2022-11-29T18:36:47.698Z,91.66
2022-11-29T18:40:16.057Z,91.54
2022-11-29T18:43:43.261Z,91.79
2022-11-29T18:47:09.949Z,91.62
2022-11-29T18:50:36.734Z,91.48
2022-11-29T18:54:04.196Z,91.68
2022-11-29T18:57:31.382Z,91.75
2022-11-29T19:01:05.415Z,91.58
2022-11-29T19:04:32.521Z,91.76
2022-11-29T19:07:59.534Z,91.94
2022-11-29T19:11:29.447Z,91.76
2022-11-29T19:14:56.478Z,91.91
2022-11-29T19:18:24.263Z,92.00
2022-11-29T19:21:51.182Z,91.90
2022-11-29T19:25:18.363Z,92.01
2022-11-29T19:28:46.619Z,91.70
2022-11-29T19:32:13.542Z,91.99
2022-11-29T19:35:43.532Z,91.89
2022-11-29T19:39:11.152Z,92.09
2022-11-29T19:42:37.817Z,91.98
2022-11-29T19:46:11.182Z,92.26
2022-11-29T19:49:43.483Z,92.09
2022-11-29T19:53:13.007Z,91.84
2022-11-29T19:56:40.387Z,92.11
2022-11-29T20:00:09.712Z,92.16
2022-11-29T20:03:40.333Z,91.83
2022-11-29T20:07:07.276Z,92.10
2022-11-29T20:10:34.426Z,91.98
2022-11-29T20:14:02.972Z,92.03
2022-11-29T20:17:29.846Z,92.11
2022-11-29T20:20:56.517Z,92.43
2022-11-29T20:24:23.355Z,92.22
2022-11-29T20:27:51.059Z,92.14
2022-11-29T20:31:21.336Z,92.11
2022-11-29T20:34:49.893Z,92.34
2022-11-29T20:38:32.277Z,92.29
2022-11-29T20:42:18.687Z,92.30
2022-11-29T20:45:46.859Z,92.21
2022-11-29T20:49:17.309Z,92.00
2022-11-29T20:52:50.103Z,92.06
2022-11-29T20:56:17.117Z,92.13
2022-11-29T20:59:44.387Z,91.85
2022-11-29T21:03:15.755Z,91.81
2022-11-29T21:06:42.850Z,92.14
2022-11-29T21:10:11.624Z,92.06
2022-11-29T21:13:41.258Z,92.10
2022-11-29T21:17:07.282Z,92.17
2022-11-29T21:20:35.046Z,92.08
2022-11-29T21:24:08.767Z,92.23
2022-11-29T21:27:37.961Z,92.09
2022-11-29T21:31:06.320Z,92.30
2022-11-29T21:34:34.067Z,92.15
2022-11-29T21:38:02.840Z,92.21
2022-11-29T21:41:29.546Z,92.29
2022-11-29T21:44:56.184Z,92.25
2022-11-29T21:48:39.162Z,92.14
2022-11-29T21:52:06.970Z,92.27
2022-11-29T21:55:33.621Z,92.23
2022-11-29T21:59:00.199Z,92.08
2022-11-29T22:02:27.199Z,92.07
2022-11-29T22:05:54.570Z,92.24
2022-11-29T22:09:21.624Z,92.21
2022-11-29T22:12:52.316Z,92.01
2022-11-29T22:16:19.374Z,92.13
2022-11-29T22:19:46.224Z,92.15
2022-11-29T22:23:13.429Z,92.34
2022-11-29T22:26:40.903Z,92.32
2022-11-29T22:30:09.754Z,92.43
2022-11-29T22:33:37.560Z,92.16
2022-11-29T22:37:04.318Z,92.09
2022-11-29T22:40:31.264Z,92.06
2022-11-29T22:43:58.209Z,92.16
2022-11-29T22:47:25.256Z,92.19
2022-11-29T22:50:51.892Z,92.14
2022-11-29T22:54:18.639Z,92.00
2022-11-29T22:57:45.645Z,92.33
2022-11-29T23:01:15.131Z,92.32
2022-11-29T23:04:40.413Z,92.10
2022-11-29T23:08:07.603Z,92.28
2022-11-29T23:11:35.082Z,92.17
2022-11-29T23:15:02.935Z,91.97
2022-11-29T23:18:29.782Z,92.01
2022-11-29T23:21:56.585Z,92.06
2022-11-29T23:25:23.247Z,91.99
2022-11-29T23:28:50.704Z,92.11
2022-11-29T23:32:17.377Z,91.95
2022-11-29T23:35:44.295Z,92.04
2022-11-29T23:39:11.506Z,92.07
2022-11-29T23:42:38.142Z,91.94
2022-11-29T23:46:10.020Z,92.00
2022-11-29T23:49:39.921Z,91.97
2022-11-29T23:53:06.979Z,92.03
